Time;durP1;ratioP1;P1;durP2;ratioP2;P2;SDS_P1;SDS_P2;PMS_P1;PMS_P2;Temp;Humidity;BMP_temperature;BMP_pressure;BME280_temperature;BME280_humidity;BME280_pressure;Samples;Min_cycle;Max_cycle;Signal;HPM_P1;HPM_P2
2022/12/16 00:01:15;;;;;;;48.40;21.60;;;;;;;-2.85;100.00;100919.84;7390979;19;20135;-59
2022/12/16 00:03:49;;;;;;;48.13;21.77;;;;;;;-2.89;100.00;100923.72;7387216;19;20677;-57
2022/12/16 00:06:21;;;;;;;42.40;20.75;;;;;;;-2.93;100.00;100929.19;7389391;19;20504;-58
2022/12/16 00:08:51;;;;;;;41.72;21.75;;;;;;;-2.93;100.00;100921.63;7389600;19;20189;-56
2022/12/16 00:11:22;;;;;;;50.45;21.85;;;;;;;-2.95;100.00;100923.13;7388414;19;20127;-59
2022/12/16 00:13:51;;;;;;;41.10;21.50;;;;;;;-2.72;100.00;100922.84;7389333;19;20182;-59
2022/12/16 00:16:23;;;;;;;45.03;21.48;;;;;;;-2.75;100.00;100916.59;7388268;19;20498;-57
2022/12/16 00:18:55;;;;;;;46.15;21.52;;;;;;;-2.77;100.00;100933.25;7389373;19;20154;-54
2022/12/16 00:21:28;;;;;;;46.42;21.83;;;;;;;-2.85;100.00;100933.41;7388237;19;20127;-53
2022/12/16 00:23:58;;;;;;;39.78;20.50;;;;;;;-2.81;100.00;100924.47;7392499;19;20171;-59
2022/12/16 00:26:28;;;;;;;43.45;21.85;;;;;;;-2.84;100.00;100936.78;7395460;19;20123;-59
2022/12/16 00:28:58;;;;;;;40.08;20.52;;;;;;;-2.79;100.00;100939.75;7396684;19;20186;-58
2022/12/16 00:31:28;;;;;;;39.65;21.35;;;;;;;-2.82;100.00;100935.31;7392605;19;20160;-55
2022/12/16 00:34:01;;;;;;;38.30;20.70;;;;;;;-2.88;100.00;100925.50;7399243;19;20596;-55
2022/12/16 00:36:30;;;;;;;39.60;19.70;;;;;;;-2.87;100.00;100926.41;7396068;19;20134;-56
2022/12/16 00:39:00;;;;;;;37.42;19.83;;;;;;;-2.77;100.00;100928.19;7396869;19;20135;-54
2022/12/16 00:41:29;;;;;;;41.05;20.02;;;;;;;-2.79;100.00;100930.56;7394777;19;20657;-61
2022/12/16 00:43:59;;;;;;;43.90;21.00;;;;;;;-2.73;100.00;100940.38;7395506;19;20166;-60
2022/12/16 00:46:29;;;;;;;42.80;21.00;;;;;;;-2.74;100.00;100938.59;7395160;19;20127;-60
2022/12/16 00:49:01;;;;;;;40.08;21.10;;;;;;;-2.71;100.00;100933.84;7399784;19;20138;-61
2022/12/16 00:51:30;;;;;;;39.20;19.75;;;;;;;-2.73;100.00;100931.16;7392805;19;20139;-59
2022/12/16 00:54:00;;;;;;;41.67;21.65;;;;;;;-2.72;100.00;100939.66;7394832;19;20166;-58
2022/12/16 00:56:30;;;;;;;39.63;20.30;;;;;;;-2.76;100.00;100940.09;7394963;19;20127;-61
2022/12/16 00:58:59;;;;;;;39.53;20.67;;;;;;;-2.76;100.00;100937.56;7396602;19;20139;-59
2022/12/16 01:01:29;;;;;;;39.47;22.27;;;;;;;-2.77;100.00;100939.19;7394622;19;20139;-59
2022/12/16 01:04:01;;;;;;;43.28;21.65;;;;;;;-2.79;100.00;100942.28;7394415;19;20292;-60
2022/12/16 01:06:30;;;;;;;42.45;21.02;;;;;;;-2.75;100.00;100950.34;7394598;19;20131;-61
2022/12/16 01:09:00;;;;;;;40.67;19.27;;;;;;;-2.71;100.00;100943.97;7396375;19;20146;-57
2022/12/16 01:11:29;;;;;;;46.58;22.55;;;;;;;-2.69;100.00;100945.00;7392176;19;20138;-60
2022/12/16 01:13:59;;;;;;;41.40;21.23;;;;;;;-2.66;100.00;100949.44;7394529;19;20162;-60
2022/12/16 01:16:29;;;;;;;41.45;20.40;;;;;;;-2.71;100.00;100949.00;7394823;19;20132;-60
2022/12/16 01:19:01;;;;;;;46.55;21.73;;;;;;;-2.72;100.00;100950.63;7395369;19;20182;-60
2022/12/16 01:21:31;;;;;;;43.35;21.30;;;;;;;-2.76;100.00;100960.28;7393610;19;20143;-59
2022/12/16 01:24:00;;;;;;;35.45;20.50;;;;;;;-2.80;100.00;100965.78;7394129;19;20159;-59
2022/12/16 01:26:30;;;;;;;45.42;22.67;;;;;;;-2.79;100.00;100959.97;7393780;19;20127;-60
2022/12/16 01:29:00;;;;;;;45.78;21.90;;;;;;;-2.80;100.00;100964.16;7395015;19;20135;-57
2022/12/16 01:31:29;;;;;;;40.28;21.20;;;;;;;-2.88;100.00;100965.91;7393391;19;20233;-59
2022/12/16 01:34:01;;;;;;;42.50;20.42;;;;;;;-2.85;100.00;100970.38;7393691;19;20162;-61
2022/12/16 01:36:31;;;;;;;54.50;22.60;;;;;;;-2.71;100.00;100966.69;7393816;19;20127;-59
2022/12/16 01:39:00;;;;;;;49.40;20.08;;;;;;;-2.62;100.00;100966.72;7394935;19;20134;-60
2022/12/16 01:41:30;;;;;;;40.85;20.98;;;;;;;-2.69;100.00;100974.41;7393568;19;20135;-59
2022/12/16 01:44:15;;;;;;;42.00;21.02;;;;;;;-2.79;100.00;100985.22;7393159;19;20195;-59
2022/12/16 01:46:45;;;;;;;40.70;20.10;;;;;;;-2.76;100.00;100985.56;7392843;19;20669;-59
2022/12/16 01:49:22;;;;;;;40.35;21.13;;;;;;;-2.73;100.00;100990.88;7397137;19;20492;-60
2022/12/16 01:51:51;;;;;;;45.35;22.35;;;;;;;-2.73;100.00;100985.84;7392693;19;20712;-59
2022/12/16 01:54:26;;;;;;;42.83;20.27;;;;;;;-2.81;100.00;100990.16;7392746;19;20658;-58
2022/12/16 01:57:00;;;;;;;47.70;20.45;;;;;;;-2.86;100.00;100992.19;7391178;19;20198;-58
2022/12/16 01:59:30;;;;;;;40.10;21.48;;;;;;;-2.78;100.00;100987.91;7394621;19;20480;-56
2022/12/16 02:02:01;;;;;;;50.80;21.92;;;;;;;-2.73;100.00;100991.78;7393006;19;20194;-59
2022/12/16 02:04:33;;;;;;;45.53;23.50;;;;;;;-2.61;100.00;100982.00;7392872;19;20179;-57
2022/12/16 02:07:03;;;;;;;48.72;21.73;;;;;;;-2.55;100.00;100979.19;7393519;19;20190;-60
2022/12/16 02:09:32;;;;;;;41.08;20.48;;;;;;;-2.48;100.00;100988.25;7394013;19;20154;-59
2022/12/16 02:12:22;;;;;;;44.50;22.90;;;;;;;-2.69;100.00;100977.81;7391020;19;21208;-59
2022/12/16 02:15:10;;;;;;;42.47;21.98;;;;;;;-2.71;100.00;100980.19;7395154;19;20593;-58
2022/12/16 02:17:45;;;;;;;44.42;21.83;;;;;;;-2.82;100.00;100979.91;7392571;19;20222;-57
2022/12/16 02:20:49;;;;;;;48.60;22.08;;;;;;;-2.81;100.00;100981.66;7393923;19;20150;-59
2022/12/16 02:23:36;;;;;;;43.88;20.80;;;;;;;-2.74;100.00;100986.59;7391281;19;20197;-58
2022/12/16 02:26:25;;;;;;;48.10;22.10;;;;;;;-2.79;100.00;100982.69;7394603;19;20127;-61
2022/12/16 02:29:13;;;;;;;49.67;22.27;;;;;;;-2.86;100.00;100982.09;7397707;19;20215;-59
2022/12/16 02:31:49;;;;;;;44.45;20.77;;;;;;;-2.88;100.00;100986.13;7383386;19;20198;-59
2022/12/16 02:34:26;;;;;;;48.05;20.77;;;;;;;-2.89;100.00;100981.81;7396194;19;20180;-59
2022/12/16 02:37:05;;;;;;;41.42;19.65;;;;;;;-2.94;100.00;100985.50;7391576;19;20214;-56
2022/12/16 02:39:39;;;;;;;45.38;20.95;;;;;;;-2.94;100.00;100982.97;7392986;19;20123;-58
2022/12/16 02:42:15;;;;;;;40.30;20.15;;;;;;;-2.95;100.00;100983.72;7390376;19;20186;-58
2022/12/16 02:44:51;;;;;;;50.92;22.23;;;;;;;-2.91;100.00;100985.81;7391410;19;20158;-60
2022/12/16 02:47:23;;;;;;;39.72;19.85;;;;;;;-2.95;100.00;100981.19;7391748;19;20207;-59
2022/12/16 02:49:54;;;;;;;43.13;21.35;;;;;;;-3.00;100.00;100988.31;7394153;19;20170;-57
2022/12/16 02:52:26;;;;;;;43.15;21.23;;;;;;;-3.01;100.00;100985.63;7390352;19;20724;-60
2022/12/16 02:54:57;;;;;;;42.35;21.40;;;;;;;-2.96;100.00;100987.00;7393227;19;20135;-60
2022/12/16 02:57:48;;;;;;;52.70;21.30;;;;;;;-2.97;100.00;100986.84;7390606;19;20190;-59
2022/12/16 03:00:20;;;;;;;42.58;20.00;;;;;;;-3.04;100.00;101003.00;7393204;19;20139;-58
2022/12/16 03:02:57;;;;;;;39.47;20.33;;;;;;;-3.10;100.00;100997.31;7390015;19;20194;-59
2022/12/16 03:05:28;;;;;;;46.78;22.60;;;;;;;-3.08;100.00;100998.41;7393153;19;20606;-57
2022/12/16 03:08:01;;;;;;;43.67;21.30;;;;;;;-3.06;100.00;100999.44;7389432;19;20218;-59
2022/12/16 03:10:34;;;;;;;41.17;20.67;;;;;;;-3.07;100.00;100992.59;7392342;19;20127;-58
2022/12/16 03:13:05;;;;;;;44.13;20.98;;;;;;;-3.09;100.00;100997.50;7389629;19;20198;-59
2022/12/16 03:15:36;;;;;;;43.83;21.38;;;;;;;-3.19;100.00;100994.81;7392731;19;20131;-60
2022/12/16 03:18:10;;;;;;;38.47;20.17;;;;;;;-3.31;100.00;100994.44;7390086;19;20201;-57
2022/12/16 03:20:45;;;;;;;40.60;21.77;;;;;;;-3.31;100.00;101002.91;7391888;19;20605;-60
2022/12/16 03:23:22;;;;;;;39.53;21.08;;;;;;;-3.29;100.00;101003.03;7389422;19;20190;-55
2022/12/16 03:25:52;;;;;;;44.35;22.38;;;;;;;-3.33;100.00;101011.06;7392110;19;20488;-54
2022/12/16 03:28:31;;;;;;;40.28;19.67;;;;;;;-3.37;100.00;101012.38;7392887;19;20531;-59
2022/12/16 03:31:06;;;;;;;45.50;21.48;;;;;;;-3.43;100.00;101027.78;7392129;19;20678;-59
2022/12/16 03:33:41;;;;;;;41.13;20.13;;;;;;;-3.36;100.00;101028.41;7393184;19;20277;-60
2022/12/16 03:36:13;;;;;;;43.90;21.20;;;;;;;-3.36;100.00;101024.25;7392029;19;20150;-60
2022/12/16 03:38:45;;;;;;;42.15;20.00;;;;;;;-3.43;100.00;101030.31;7389672;19;20194;-62
2022/12/16 03:41:15;;;;;;;44.95;20.80;;;;;;;-3.44;100.00;101026.00;7391987;19;20480;-58
2022/12/16 03:43:44;;;;;;;38.83;19.30;;;;;;;-3.42;100.00;101029.59;7387423;19;20198;-60
2022/12/16 03:46:14;;;;;;;46.45;21.75;;;;;;;-3.44;100.00;101038.63;7394686;19;20138;-57
2022/12/16 03:48:51;;;;;;;51.92;20.83;;;;;;;-3.49;100.00;101037.25;7388288;19;20222;-59
2022/12/16 03:51:21;;;;;;;50.15;20.80;;;;;;;-3.52;100.00;101030.25;7388553;19;20172;-59
2022/12/16 03:53:51;;;;;;;39.88;20.55;;;;;;;-3.58;100.00;101027.09;7389788;19;20154;-61
2022/12/16 03:56:20;;;;;;;40.30;20.80;;;;;;;-3.68;100.00;101027.78;7389646;19;20135;-59
2022/12/16 03:58:49;;;;;;;46.65;21.85;;;;;;;-3.71;100.00;101039.19;7387641;19;20138;-60
2022/12/16 04:01:19;;;;;;;43.08;21.50;;;;;;;-3.64;100.00;101039.06;7389486;19;20143;-58
2022/12/16 04:03:52;;;;;;;45.33;22.70;;;;;;;-3.74;100.00;101043.94;7388107;19;20198;-59
2022/12/16 04:06:21;;;;;;;45.33;21.13;;;;;;;-3.72;100.00;101043.34;7387924;19;20131;-56
2022/12/16 04:08:51;;;;;;;48.90;22.45;;;;;;;-3.71;100.00;101037.56;7389674;19;20485;-59
2022/12/16 04:24:58;;;;;;;44.97;22.02;;;;;;;-3.81;100.00;101047.44;7390270;19;20139;-62
2022/12/16 04:27:28;;;;;;;84.53;37.13;;;;;;;-0.77;100.00;100988.97;7387320;19;20218;-62
